Airfield :
LOGIN :

Register | Disclaimer

   EN    FR    IT 

 










Legend :    VFR   Marginal VFR   IFR   Intensive IFR   Very Intensive IFR
Visi :
Ceiling :
>= 8 km
>= 3000ft
5 to 8 km
1000 to 3000 ft
1500m to 5 km
500 to 1000 ft
800 to 1500m
200 to 500 ft
< 800m
< 200 ft
Symbols :   Thunderstorms  Fog  Heavy snow  Heavy precipitations  Wind > 20 kt
SIGMETs :     Misc.  Thunderstorms  Icing  Turbulence  Mountain Waves  Volcanic Ashes







- Airport Elevation : 636 ft


LPBJ - Beja Air Base

CURRENT METAR :
  • 250600Z VRB02KT CAVOK 17/11 Q1014

EXPIRED METARs :
  • 250500Z 17003KT CAVOK 17/11 Q1014
  • 250400Z 24003KT CAVOK 17/11 Q1014

TAF TAF LPBJ
Valid from the 25 at 06:00 until the 26 at 06:00 UTC


250509Z 2506/2606 21005KT CAVOK
BECMG 2518/2520 31008KT
PROB30
TEMPO 2518/2524 33010G20KT 7000 SHRA FEW025TCU BKN030
BECMG 2522/2524 VRB02KT
No reported NOTAMs for that airfield.
1 SIGMET reported for the Lisboa FIR (LPPC) :
 
Embedded thunderstorms
LPPC SIGMET 7 VALID 250520/250650 LPPT
LPPC LISBON FIR EMBD TS FCST N OF N3845 AND E OF W01030 TOP FL380 MOV N 15KT NC=



MET'MAP, your aeronautical weather chart ! - Copyright ORBIFLY December 2007 - Disclaimer

ORBIFLY MET'MAP TEAM :

Programming & Development : Alexandra Zaïnal
Concept & Development : Baudouin d'Aumeries
Co-Development & Prog : Marc-Olivier Méhu
Technical & hardware support : Manuel Goepfert

Contact : metmap@orbifly.com




SOURCES & CREDITS :

   NOAA